createdAt,value
2018-06-23T00:01:22.371Z,13.10
2018-06-23T00:03:49.769Z,13.10
2018-06-23T00:06:17.178Z,13.00
2018-06-23T00:08:44.591Z,13.10
2018-06-23T00:11:11.965Z,13.10
2018-06-23T00:13:39.377Z,13.10
2018-06-23T00:16:06.857Z,13.10
2018-06-23T00:18:34.254Z,13.20
2018-06-23T00:21:01.655Z,13.20
2018-06-23T00:23:29.309Z,13.10
2018-06-23T00:26:02.285Z,13.00
2018-06-23T00:28:29.863Z,13.10
2018-06-23T00:30:57.213Z,13.10
2018-06-23T00:33:24.698Z,13.20
2018-06-23T00:35:52.127Z,13.10
2018-06-23T00:38:19.526Z,12.90
2018-06-23T00:40:46.904Z,12.80
2018-06-23T00:43:14.436Z,12.70
2018-06-23T00:45:41.823Z,12.60
2018-06-23T00:48:09.174Z,12.60
2018-06-23T00:50:36.588Z,12.50
2018-06-23T00:53:04.008Z,12.40
2018-06-23T00:55:31.494Z,12.30
2018-06-23T00:57:58.894Z,12.20
2018-06-23T01:00:26.350Z,12.10
2018-06-23T01:02:53.738Z,12.00
2018-06-23T01:05:21.062Z,12.00
2018-06-23T01:07:48.362Z,12.00
2018-06-23T01:10:15.897Z,12.00
2018-06-23T01:12:43.294Z,11.80
2018-06-23T01:15:10.661Z,11.80
2018-06-23T01:17:38.150Z,11.60
2018-06-23T01:20:05.502Z,11.60
2018-06-23T01:22:32.850Z,11.50
2018-06-23T01:25:00.302Z,11.40
2018-06-23T01:27:27.701Z,11.40
2018-06-23T01:29:55.074Z,11.40
2018-06-23T01:32:22.542Z,11.30
2018-06-23T01:34:49.958Z,11.20
2018-06-23T01:37:17.337Z,11.20
2018-06-23T01:39:44.782Z,11.30
2018-06-23T01:42:12.201Z,11.20
2018-06-23T01:44:39.594Z,11.20
2018-06-23T01:47:07.040Z,11.30
2018-06-23T01:49:34.450Z,11.20
2018-06-23T01:52:01.826Z,11.20
2018-06-23T01:54:29.184Z,11.10
2018-06-23T01:56:56.541Z,11.00
2018-06-23T01:59:23.865Z,10.90
2018-06-23T02:01:51.193Z,10.90
2018-06-23T02:04:18.615Z,10.70
2018-06-23T02:06:46.045Z,10.70
2018-06-23T02:09:13.339Z,10.70
2018-06-23T02:11:40.817Z,10.70
2018-06-23T02:14:13.836Z,10.60
2018-06-23T02:16:47.056Z,10.60
2018-06-23T02:19:20.262Z,10.60
2018-06-23T02:21:53.244Z,10.50
2018-06-23T02:24:26.451Z,10.50
2018-06-23T02:26:59.545Z,10.50
2018-06-23T02:29:32.556Z,10.50
2018-06-23T02:32:05.536Z,10.50
2018-06-23T02:34:38.817Z,10.50
2018-06-23T02:37:06.329Z,10.40
2018-06-23T02:39:33.767Z,10.10
2018-06-23T02:42:01.161Z,10.30
2018-06-23T02:44:28.547Z,10.20
2018-06-23T02:46:55.886Z,10.20
2018-06-23T02:49:23.191Z,10.10
2018-06-23T02:51:50.640Z,10.20
2018-06-23T02:54:18.067Z,10.10
2018-06-23T02:56:45.497Z,10.10
2018-06-23T02:59:12.829Z,10.00
2018-06-23T03:01:40.191Z,10.10
2018-06-23T03:04:07.479Z,10.20
2018-06-23T03:06:34.806Z,10.30
2018-06-23T03:09:02.257Z,10.40
2018-06-23T03:11:29.703Z,10.20
2018-06-23T03:13:57.063Z,10.20
2018-06-23T03:16:24.437Z,10.20
2018-06-23T03:18:51.933Z,10.20
2018-06-23T03:21:19.449Z,10.10
2018-06-23T03:23:46.826Z,10.10
2018-06-23T03:26:14.203Z,10.00
2018-06-23T03:28:41.743Z,10.00
2018-06-23T03:31:09.137Z,9.90
2018-06-23T03:33:36.475Z,9.80
2018-06-23T03:36:03.898Z,9.80
2018-06-23T03:38:31.259Z,9.70
2018-06-23T03:40:58.689Z,9.70
2018-06-23T03:43:26.035Z,9.60
2018-06-23T03:45:53.415Z,9.60
2018-06-23T03:48:20.824Z,9.60
2018-06-23T03:50:48.114Z,9.60
2018-06-23T03:53:15.601Z,9.50
2018-06-23T03:55:43.035Z,9.70
2018-06-23T03:58:10.355Z,9.60
2018-06-23T04:00:42.269Z,9.70
2018-06-23T04:03:09.632Z,9.60
2018-06-23T04:05:37.885Z,9.60
2018-06-23T04:08:05.633Z,9.60
2018-06-23T04:10:32.922Z,9.70
2018-06-23T04:13:00.353Z,9.70
2018-06-23T04:15:27.728Z,9.80
2018-06-23T04:17:55.126Z,9.90
2018-06-23T04:20:22.992Z,10.00
2018-06-23T04:22:50.470Z,10.00
2018-06-23T04:25:19.033Z,10.00
2018-06-23T04:27:46.832Z,10.00
2018-06-23T04:30:14.455Z,10.10
2018-06-23T04:32:42.386Z,10.20
2018-06-23T04:35:11.986Z,10.20
2018-06-23T04:37:39.945Z,10.30
2018-06-23T04:40:07.789Z,10.50
2018-06-23T04:42:35.624Z,10.60
2018-06-23T04:45:03.886Z,10.80
2018-06-23T04:47:33.352Z,11.00
2018-06-23T04:50:01.101Z,11.10
2018-06-23T04:52:29.969Z,11.20
2018-06-23T04:54:58.687Z,11.20
2018-06-23T04:57:39.432Z,11.20
2018-06-23T05:00:07.512Z,11.40
2018-06-23T05:02:36.215Z,11.50
2018-06-23T05:05:04.827Z,11.90
2018-06-23T05:07:33.493Z,12.00
2018-06-23T05:10:01.276Z,12.10
2018-06-23T05:12:29.149Z,12.20
2018-06-23T05:14:57.517Z,12.20
2018-06-23T05:17:25.409Z,12.30
2018-06-23T05:19:54.185Z,12.40
2018-06-23T05:22:22.005Z,12.40
2018-06-23T05:24:50.234Z,12.40
2018-06-23T05:27:17.973Z,12.40
2018-06-23T05:29:45.829Z,12.30
2018-06-23T05:32:14.265Z,12.50
2018-06-23T05:34:42.191Z,12.50
2018-06-23T05:37:09.939Z,12.30
2018-06-23T05:39:39.177Z,12.50
2018-06-23T05:42:07.244Z,12.60
2018-06-23T05:44:35.173Z,12.40
2018-06-23T05:47:03.241Z,12.50
2018-06-23T05:49:31.080Z,12.60
2018-06-23T05:51:58.865Z,12.80
2018-06-23T05:54:26.929Z,12.90
2018-06-23T05:56:54.660Z,13.00
2018-06-23T05:59:22.439Z,12.90
2018-06-23T06:01:59.743Z,13.00
2018-06-23T06:04:27.632Z,13.00
2018-06-23T06:07:09.238Z,13.00
2018-06-23T06:09:40.257Z,13.00
2018-06-23T06:12:08.114Z,13.10
2018-06-23T06:14:36.791Z,13.20
2018-06-23T06:17:29.750Z,13.40
2018-06-23T06:19:58.766Z,13.50
2018-06-23T06:22:27.396Z,13.60
2018-06-23T06:24:55.093Z,13.80
2018-06-23T06:27:22.498Z,14.10
2018-06-23T06:29:50.515Z,14.10
2018-06-23T06:34:52.109Z,14.00
2018-06-23T06:37:19.633Z,14.00
2018-06-23T06:39:47.295Z,14.10
2018-06-23T06:42:15.039Z,14.30
2018-06-23T06:44:42.597Z,13.80
2018-06-23T06:47:10.951Z,13.70
2018-06-23T06:49:38.393Z,13.80
2018-06-23T06:52:06.062Z,13.90
2018-06-23T06:54:33.598Z,14.10
2018-06-23T06:57:01.035Z,14.00
2018-06-23T06:59:28.375Z,13.90
2018-06-23T07:01:55.779Z,14.00
2018-06-23T07:04:23.106Z,14.00
2018-06-23T07:06:50.398Z,14.60
2018-06-23T07:09:17.810Z,14.50
2018-06-23T07:11:45.434Z,14.90
2018-06-23T07:14:12.934Z,15.20
2018-06-23T07:16:41.026Z,15.10
2018-06-23T07:19:08.390Z,15.00
2018-06-23T07:24:10.115Z,15.10
2018-06-23T07:26:37.406Z,15.10
2018-06-23T07:29:05.867Z,15.10
2018-06-23T07:31:33.337Z,15.50
2018-06-23T07:34:00.674Z,15.60
2018-06-23T07:36:28.271Z,15.90
2018-06-23T07:38:55.789Z,15.80
2018-06-23T07:41:23.611Z,15.30
2018-06-23T07:43:50.959Z,14.90
2018-06-23T07:46:18.440Z,14.80
2018-06-23T07:48:45.953Z,14.80
2018-06-23T07:51:13.562Z,14.50
2018-06-23T07:53:41.313Z,14.50
2018-06-23T07:56:09.347Z,14.30
2018-06-23T07:58:36.882Z,14.20
2018-06-23T08:01:04.713Z,14.20
2018-06-23T08:03:32.853Z,14.60
2018-06-23T08:06:00.482Z,14.70
2018-06-23T08:10:55.342Z,14.60
2018-06-23T08:13:22.834Z,14.70
2018-06-23T08:15:50.265Z,14.70
2018-06-23T08:18:17.667Z,14.70
2018-06-23T08:20:45.187Z,14.80
2018-06-23T08:23:12.537Z,15.00
2018-06-23T08:25:39.846Z,15.00
2018-06-23T08:28:07.282Z,14.70
2018-06-23T08:30:34.697Z,14.80
2018-06-23T08:33:02.198Z,14.70
2018-06-23T08:37:56.982Z,14.70
2018-06-23T08:40:24.289Z,14.80
2018-06-23T08:42:51.629Z,14.90
2018-06-23T08:47:46.593Z,16.40
2018-06-23T08:50:14.171Z,16.70
2018-06-23T08:52:41.567Z,16.00
2018-06-23T08:55:08.969Z,15.90
2018-06-23T08:57:36.387Z,15.80
2018-06-23T09:00:04.451Z,16.00
2018-06-23T09:02:31.855Z,16.40
2018-06-23T09:04:59.195Z,16.90
2018-06-23T09:07:26.655Z,17.00
2018-06-23T09:09:54.044Z,16.90
2018-06-23T09:12:21.453Z,17.00
2018-06-23T09:14:48.839Z,17.00
2018-06-23T09:17:16.455Z,17.10
2018-06-23T09:19:43.833Z,16.80
2018-06-23T09:22:11.113Z,16.70
2018-06-23T09:24:39.444Z,17.20
2018-06-23T09:27:06.843Z,17.20
2018-06-23T09:29:34.257Z,17.20
2018-06-23T09:32:01.681Z,17.30
2018-06-23T09:34:29.247Z,17.30
2018-06-23T09:36:56.795Z,17.60
2018-06-23T09:39:24.487Z,17.70
2018-06-23T09:41:52.023Z,18.30
2018-06-23T09:44:19.465Z,18.60
2018-06-23T09:46:46.858Z,19.10
2018-06-23T09:49:14.262Z,19.50
2018-06-23T09:51:41.702Z,19.70
2018-06-23T09:54:09.102Z,19.90
2018-06-23T09:56:36.511Z,19.60
2018-06-23T09:59:03.884Z,19.70
2018-06-23T10:01:31.335Z,19.60
2018-06-23T10:03:58.666Z,19.50
2018-06-23T10:06:26.093Z,19.00
2018-06-23T10:08:53.478Z,18.80
2018-06-23T10:11:21.119Z,18.40
2018-06-23T10:13:48.579Z,18.50
2018-06-23T10:16:15.998Z,18.50
2018-06-23T10:18:43.402Z,18.70
2018-06-23T10:21:10.818Z,18.30
2018-06-23T10:23:38.588Z,18.30
2018-06-23T10:26:05.968Z,18.60
2018-06-23T10:28:33.369Z,19.20
2018-06-23T10:31:00.767Z,19.70
2018-06-23T10:33:28.233Z,19.40
2018-06-23T10:35:55.726Z,19.60
2018-06-23T10:38:23.085Z,19.90
2018-06-23T10:40:50.523Z,19.90
2018-06-23T10:43:17.853Z,19.20
2018-06-23T10:45:45.216Z,19.40
2018-06-23T10:48:12.746Z,19.30
2018-06-23T10:50:40.101Z,19.20
2018-06-23T10:53:07.646Z,19.10
2018-06-23T10:55:35.005Z,19.10
2018-06-23T10:58:02.555Z,19.00
2018-06-23T11:00:29.947Z,18.70
2018-06-23T11:02:57.395Z,18.70
2018-06-23T11:05:24.737Z,18.20
2018-06-23T11:07:52.092Z,18.40
2018-06-23T11:10:19.543Z,18.40
2018-06-23T11:12:46.869Z,18.10
2018-06-23T11:15:14.239Z,18.20
2018-06-23T11:17:41.590Z,18.10
2018-06-23T11:20:08.930Z,18.10
2018-06-23T11:22:36.381Z,18.10
2018-06-23T11:25:03.990Z,18.00
2018-06-23T11:27:31.356Z,18.10
2018-06-23T11:29:58.849Z,18.20
2018-06-23T11:32:26.326Z,18.40
2018-06-23T11:34:53.721Z,18.40
2018-06-23T11:37:21.135Z,18.40
2018-06-23T11:39:48.488Z,18.50
2018-06-23T11:42:15.811Z,18.60
2018-06-23T11:44:43.243Z,18.60
2018-06-23T11:47:10.713Z,18.80
2018-06-23T11:49:38.243Z,18.70
2018-06-23T11:52:05.876Z,18.80
2018-06-23T11:54:33.264Z,19.00
2018-06-23T11:57:00.756Z,19.00
2018-06-23T11:59:28.123Z,19.10
2018-06-23T12:01:55.657Z,19.30
2018-06-23T12:04:25.271Z,19.30
2018-06-23T12:06:52.759Z,19.40
2018-06-23T12:09:21.048Z,19.80
2018-06-23T12:11:48.596Z,19.90
2018-06-23T12:14:16.008Z,20.30
2018-06-23T12:16:43.386Z,20.80
2018-06-23T12:19:10.815Z,21.00
2018-06-23T12:21:38.410Z,21.10
2018-06-23T12:24:05.891Z,21.20
2018-06-23T12:26:33.301Z,20.60
2018-06-23T12:29:00.782Z,20.30
2018-06-23T12:31:28.204Z,20.10
2018-06-23T12:33:55.679Z,20.10
2018-06-23T12:36:23.078Z,19.90
2018-06-23T12:38:50.490Z,19.90
2018-06-23T12:41:17.970Z,19.90
2018-06-23T12:43:45.396Z,20.00
2018-06-23T12:46:12.806Z,19.90
2018-06-23T12:48:40.482Z,19.90
2018-06-23T12:51:07.914Z,19.80
2018-06-23T12:53:35.218Z,19.80
2018-06-23T12:56:02.750Z,19.70
2018-06-23T12:58:30.278Z,19.30
2018-06-23T13:00:57.598Z,18.90
2018-06-23T13:03:25.006Z,18.70
2018-06-23T13:05:52.429Z,18.80
2018-06-23T13:08:19.924Z,18.80
2018-06-23T13:10:47.325Z,18.70
2018-06-23T13:13:14.918Z,18.70
2018-06-23T13:15:42.440Z,18.60
2018-06-23T13:18:09.983Z,18.60
2018-06-23T13:20:37.976Z,18.70
2018-06-23T13:23:05.349Z,18.70
2018-06-23T13:25:32.909Z,18.60
2018-06-23T13:28:00.308Z,18.80
2018-06-23T13:30:27.766Z,18.90
2018-06-23T13:32:55.279Z,19.10
2018-06-23T13:35:29.617Z,19.20
2018-06-23T13:37:56.997Z,19.30
2018-06-23T13:40:24.330Z,19.50
2018-06-23T13:42:51.789Z,19.40
2018-06-23T13:45:19.278Z,19.10
2018-06-23T13:47:46.676Z,18.80
2018-06-23T13:50:14.162Z,18.70
2018-06-23T13:52:41.653Z,18.50
2018-06-23T13:55:09.010Z,18.50
2018-06-23T13:57:36.517Z,18.50
2018-06-23T14:00:04.595Z,18.70
2018-06-23T14:02:32.077Z,18.40
2018-06-23T14:04:59.484Z,18.40
2018-06-23T14:07:26.981Z,18.30
2018-06-23T14:09:54.441Z,18.20
2018-06-23T14:12:21.833Z,18.00
2018-06-23T14:14:49.352Z,17.90
2018-06-23T14:17:16.831Z,17.90
2018-06-23T14:19:44.329Z,17.90
2018-06-23T14:22:11.784Z,17.90
2018-06-23T14:24:39.236Z,17.90
2018-06-23T14:27:06.794Z,18.00
2018-06-23T14:29:34.252Z,18.00
2018-06-23T14:32:02.062Z,17.90
2018-06-23T14:34:29.427Z,17.80
2018-06-23T14:36:56.967Z,17.70
2018-06-23T14:39:24.439Z,17.70
2018-06-23T14:41:51.807Z,17.60
2018-06-23T14:44:19.120Z,17.30
2018-06-23T14:46:46.531Z,17.30
2018-06-23T14:49:13.789Z,17.10
2018-06-23T14:51:41.210Z,17.20
2018-06-23T14:54:08.634Z,17.30
2018-06-23T14:56:36.028Z,17.60
2018-06-23T14:59:03.518Z,17.60
2018-06-23T15:01:30.916Z,17.80
2018-06-23T15:03:58.326Z,18.10
2018-06-23T15:06:25.680Z,17.90
2018-06-23T15:09:04.836Z,17.90
2018-06-23T15:11:43.669Z,17.80
2018-06-23T15:14:11.080Z,17.60
2018-06-23T15:16:38.414Z,17.60
2018-06-23T15:19:05.812Z,17.40
2018-06-23T15:21:33.255Z,17.40
2018-06-23T15:24:00.697Z,17.40
2018-06-23T15:26:28.107Z,17.50
2018-06-23T15:28:55.624Z,17.40
2018-06-23T15:31:23.083Z,17.30
2018-06-23T15:33:50.524Z,17.20
2018-06-23T15:36:18.013Z,17.10
2018-06-23T15:38:45.474Z,16.90
2018-06-23T15:41:12.996Z,17.00
2018-06-23T15:43:40.453Z,16.90
2018-06-23T15:46:07.949Z,16.80
2018-06-23T15:48:35.385Z,16.70
2018-06-23T15:51:02.815Z,16.60
2018-06-23T15:53:30.256Z,16.60
2018-06-23T15:55:57.689Z,16.60
2018-06-23T15:58:25.103Z,16.70
2018-06-23T16:00:52.574Z,16.80
2018-06-23T16:03:19.963Z,17.00
2018-06-23T16:05:47.374Z,16.90
2018-06-23T16:08:16.015Z,16.90
2018-06-23T16:10:43.480Z,17.00
2018-06-23T16:13:10.833Z,17.00
2018-06-23T16:15:38.239Z,17.10
2018-06-23T16:18:05.675Z,17.10
2018-06-23T16:20:33.091Z,17.10
2018-06-23T16:23:00.456Z,17.10
2018-06-23T16:25:27.884Z,17.00
2018-06-23T16:27:55.274Z,16.90
2018-06-23T16:30:22.667Z,16.80
2018-06-23T16:32:50.063Z,16.70
2018-06-23T16:35:17.842Z,16.50
2018-06-23T16:37:44.826Z,16.50
2018-06-23T16:40:12.318Z,16.50
2018-06-23T16:42:39.726Z,16.60
2018-06-23T16:45:07.191Z,16.60
2018-06-23T16:47:34.542Z,16.60
2018-06-23T16:50:02.414Z,16.50
2018-06-23T16:52:29.883Z,16.50
2018-06-23T16:54:57.319Z,16.40
2018-06-23T16:57:24.728Z,16.50
2018-06-23T16:59:52.166Z,16.40
2018-06-23T17:02:19.577Z,16.40
2018-06-23T17:04:47.012Z,16.50
2018-06-23T17:07:14.420Z,16.30
2018-06-23T17:09:42.076Z,16.30
2018-06-23T17:12:09.422Z,16.30
2018-06-23T17:14:36.858Z,16.40
2018-06-23T17:17:04.402Z,16.30
2018-06-23T17:19:31.801Z,16.30
2018-06-23T17:21:59.228Z,16.30
2018-06-23T17:24:26.718Z,16.30
2018-06-23T17:26:54.158Z,16.30
2018-06-23T17:29:21.589Z,16.40
2018-06-23T17:31:49.008Z,16.50
2018-06-23T17:34:16.375Z,16.50
2018-06-23T17:36:43.686Z,16.60
2018-06-23T17:39:11.356Z,16.50
2018-06-23T17:41:39.057Z,16.50
2018-06-23T17:44:06.537Z,16.60
2018-06-23T17:46:33.905Z,16.50
2018-06-23T17:49:01.403Z,16.40
2018-06-23T17:51:28.928Z,16.50
2018-06-23T17:53:56.342Z,16.40
2018-06-23T17:58:51.365Z,16.50
2018-06-23T18:01:18.963Z,16.40
2018-06-23T18:03:46.367Z,16.40
2018-06-23T18:06:13.849Z,16.40
2018-06-23T18:08:41.353Z,16.40
2018-06-23T18:11:08.967Z,16.30
2018-06-23T18:13:36.335Z,16.40
2018-06-23T18:16:03.972Z,16.30
2018-06-23T18:18:31.493Z,16.30
2018-06-23T18:20:58.901Z,16.30
2018-06-23T18:23:26.269Z,16.30
2018-06-23T18:25:53.717Z,16.30
2018-06-23T18:28:21.111Z,16.30
2018-06-23T18:30:48.449Z,16.20
2018-06-23T18:33:16.009Z,16.20
2018-06-23T18:35:43.478Z,16.20
2018-06-23T18:38:10.931Z,16.20
2018-06-23T18:40:38.298Z,16.10
2018-06-23T18:43:05.722Z,16.10
2018-06-23T18:45:33.232Z,16.20
2018-06-23T18:48:00.650Z,16.30
2018-06-23T18:50:28.135Z,16.20
2018-06-23T18:52:55.735Z,16.10
2018-06-23T18:55:23.198Z,16.10
2018-06-23T18:57:50.658Z,16.00
2018-06-23T19:00:18.041Z,16.00
2018-06-23T19:02:45.463Z,16.00
2018-06-23T19:05:12.830Z,16.00
2018-06-23T19:07:40.184Z,15.80
2018-06-23T19:10:07.616Z,15.80
2018-06-23T19:12:34.952Z,15.70
2018-06-23T19:15:02.430Z,15.60
2018-06-23T19:17:29.822Z,15.60
2018-06-23T19:19:57.239Z,15.60
2018-06-23T19:22:24.634Z,15.60
2018-06-23T19:24:52.019Z,15.60
2018-06-23T19:27:19.414Z,15.60
2018-06-23T19:29:46.830Z,15.40
2018-06-23T19:32:14.235Z,15.40
2018-06-23T19:34:41.584Z,15.40
2018-06-23T19:37:08.987Z,15.40
2018-06-23T19:39:36.414Z,15.30
2018-06-23T19:42:03.788Z,15.30
2018-06-23T19:44:31.205Z,15.30
2018-06-23T19:46:58.541Z,15.30
2018-06-23T19:49:25.898Z,15.30
2018-06-23T19:51:53.358Z,15.30
2018-06-23T19:54:20.745Z,15.20
2018-06-23T19:56:48.162Z,15.20
2018-06-23T19:59:15.682Z,15.20
2018-06-23T20:01:43.122Z,15.10
2018-06-23T20:04:10.490Z,15.20
2018-06-23T20:06:38.067Z,15.20
2018-06-23T20:09:07.487Z,15.20
2018-06-23T20:11:34.842Z,15.20
2018-06-23T20:14:02.266Z,15.10
2018-06-23T20:16:29.650Z,15.10
2018-06-23T20:18:57.067Z,15.10
2018-06-23T20:21:24.515Z,15.00
2018-06-23T20:23:51.970Z,15.10
2018-06-23T20:26:19.397Z,15.10
2018-06-23T20:28:46.772Z,15.00
2018-06-23T20:31:14.218Z,15.00
2018-06-23T20:33:41.683Z,15.00
2018-06-23T20:36:09.126Z,14.90
2018-06-23T20:38:36.526Z,14.90
2018-06-23T20:41:03.948Z,14.80
2018-06-23T20:43:31.364Z,14.80
2018-06-23T20:45:58.859Z,14.80
2018-06-23T20:48:26.276Z,14.70
2018-06-23T20:50:53.703Z,14.60
2018-06-23T20:53:21.161Z,14.60
2018-06-23T20:55:48.837Z,14.60
2018-06-23T20:58:16.298Z,14.60
2018-06-23T21:00:43.756Z,14.70
2018-06-23T21:03:11.200Z,14.80
2018-06-23T21:05:38.635Z,14.80
2018-06-23T21:08:06.061Z,14.80
2018-06-23T21:10:39.284Z,14.70
2018-06-23T21:13:06.675Z,14.60
2018-06-23T21:15:35.624Z,14.60
2018-06-23T21:18:07.209Z,14.50
2018-06-23T21:21:08.359Z,14.50
2018-06-23T21:23:43.516Z,14.60
2018-06-23T21:26:10.995Z,14.60
2018-06-23T21:28:49.075Z,14.50
2018-06-23T21:31:16.950Z,14.50
2018-06-23T21:33:44.520Z,14.50
2018-06-23T21:36:12.256Z,14.40
2018-06-23T21:38:40.010Z,14.40
2018-06-23T21:41:07.892Z,14.30
2018-06-23T21:43:35.916Z,14.30
2018-06-23T21:46:04.559Z,14.30
2018-06-23T21:48:32.195Z,14.30
2018-06-23T21:51:00.873Z,14.30
2018-06-23T21:53:28.934Z,14.20
2018-06-23T21:55:56.947Z,14.30
2018-06-23T21:58:24.694Z,14.30
2018-06-23T22:00:53.375Z,14.40
2018-06-23T22:03:21.749Z,14.30
2018-06-23T22:05:49.230Z,14.30
2018-06-23T22:08:17.785Z,14.20
2018-06-23T22:10:45.592Z,14.10
2018-06-23T22:13:14.227Z,14.10
2018-06-23T22:15:44.740Z,14.00
2018-06-23T22:18:13.779Z,14.00
2018-06-23T22:20:42.639Z,13.90
2018-06-23T22:23:11.091Z,13.90
2018-06-23T22:25:38.824Z,13.80
2018-06-23T22:28:06.228Z,13.80
2018-06-23T22:30:33.640Z,13.90
2018-06-23T22:33:01.030Z,13.90
2018-06-23T22:35:28.557Z,13.80
2018-06-23T22:37:55.940Z,13.80
2018-06-23T22:40:23.331Z,13.90
2018-06-23T22:42:50.790Z,13.90
2018-06-23T22:45:18.192Z,13.90
2018-06-23T22:47:45.717Z,13.90
2018-06-23T22:50:13.070Z,13.90
2018-06-23T22:52:40.487Z,14.00
2018-06-23T22:55:09.115Z,14.00
2018-06-23T22:57:36.594Z,13.90
2018-06-23T23:00:08.043Z,13.70
2018-06-23T23:02:35.580Z,13.70
2018-06-23T23:05:03.257Z,13.70
2018-06-23T23:07:30.691Z,13.60
2018-06-23T23:09:58.148Z,13.50
2018-06-23T23:12:25.581Z,13.50
2018-06-23T23:14:52.913Z,13.50
2018-06-23T23:17:20.297Z,13.40
2018-06-23T23:19:47.722Z,13.40
2018-06-23T23:22:15.130Z,13.30
2018-06-23T23:24:42.482Z,13.30
2018-06-23T23:27:09.821Z,13.30
2018-06-23T23:29:39.676Z,13.20
2018-06-23T23:32:07.056Z,13.20
2018-06-23T23:34:34.456Z,13.20
2018-06-23T23:37:01.827Z,13.20
2018-06-23T23:39:29.161Z,13.10
2018-06-23T23:41:56.579Z,13.10
2018-06-23T23:44:23.979Z,13.00
2018-06-23T23:46:51.366Z,13.00
2018-06-23T23:49:18.727Z,12.90
2018-06-23T23:51:46.061Z,12.80
2018-06-23T23:54:13.530Z,12.80
2018-06-23T23:56:40.986Z,12.80
2018-06-23T23:59:08.486Z,12.90
